Time;durP1;ratioP1;P1;durP2;ratioP2;P2;SDS_P1;SDS_P2;PMS_P1;PMS_P2;Temp;Humidity;BMP_temperature;BMP_pressure;BME280_temperature;BME280_humidity;BME280_pressure;Samples;Min_cycle;Max_cycle;Signal;HPM_P1;HPM_P2
2023/06/08 00:00:26;;;;;;;6.13;4.78;;;;;;;;;;8316210;28;20454;-60
2023/06/08 00:04:30;;;;;;;6.20;5.00;;;;;;;;;;8314992;28;20112;-61
2023/06/08 00:08:30;;;;;;;5.10;4.60;;;;;;;;;;8314645;28;20591;-60
2023/06/08 00:12:31;;;;;;;5.03;4.53;;;;;;;;;;8314272;28;20102;-60
2023/06/08 00:16:33;;;;;;;5.45;4.63;;;;;;;;;;8313528;28;20156;-61
2023/06/08 00:20:34;;;;;;;5.22;4.07;;;;;;;;;;8315502;28;20028;-60
2023/06/08 00:24:35;;;;;;;5.82;4.45;;;;;;;;;;8317871;28;20021;-60
2023/06/08 00:28:35;;;;;;;4.80;4.30;;;;;;;;;;8317330;28;20025;-60
2023/06/08 00:32:35;;;;;;;5.00;4.30;;;;;;;;;;8315359;28;20033;-61
2023/06/08 00:36:37;;;;;;;4.93;4.15;;;;;;;;;;8312332;28;20127;-60
2023/06/08 00:40:37;;;;;;;5.10;4.20;;;;;;;;;;8313271;28;20024;-60
2023/06/08 00:44:37;;;;;;;8.00;4.85;;;;;;;;;;8314988;28;20025;-61
2023/06/08 00:48:37;;;;;;;6.65;4.63;;;;;;;;;;8314574;28;20041;-61
2023/06/08 00:52:39;;;;;;;6.25;4.57;;;;;;;;;;8313226;28;20055;-61
2023/06/08 00:56:40;;;;;;;5.82;4.80;;;;;;;;;;8313056;28;20040;-60
2023/06/08 01:00:41;;;;;;;5.10;4.60;;;;;;;;;;8314169;28;20734;-60
2023/06/08 01:04:42;;;;;;;5.72;4.40;;;;;;;;;;8313362;28;20174;-60
2023/06/08 01:08:42;;;;;;;5.43;4.22;;;;;;;;;;8314411;28;20029;-60
2023/06/08 01:12:45;;;;;;;4.40;4.00;;;;;;;;;;8315133;28;20029;-60
2023/06/08 01:16:49;;;;;;;;;;;;;;;;;;8308925;28;20045;-61
2023/06/08 01:21:06;;;;;;;6.70;4.25;;;;;;;;;;8312297;28;20710;-60
2023/06/08 01:25:08;;;;;;;4.75;4.20;;;;;;;;;;8315868;28;20032;-61
2023/06/08 01:29:10;;;;;;;4.68;4.03;;;;;;;;;;8315508;28;20814;-60
2023/06/08 01:33:11;;;;;;;5.78;4.65;;;;;;;;;;8311941;28;20033;-60
2023/06/08 01:37:14;;;;;;;7.35;4.90;;;;;;;;;;8314016;28;20067;-60
2023/06/08 01:41:23;;;;;;;6.15;4.22;;;;;;;;;;8312968;28;20017;-61
2023/06/08 01:45:25;;;;;;;6.80;4.60;;;;;;;;;;8313184;28;20045;-60
2023/06/08 01:49:26;;;;;;;5.20;4.47;;;;;;;;;;8311974;28;20036;-60
2023/06/08 01:53:26;;;;;;;5.10;4.55;;;;;;;;;;8314017;28;20037;-61
2023/06/08 01:57:26;;;;;;;5.60;4.63;;;;;;;;;;8314800;28;20017;-60
2023/06/08 02:01:27;;;;;;;5.22;4.07;;;;;;;;;;8315618;28;20037;-60
2023/06/08 02:05:27;;;;;;;6.78;4.38;;;;;;;;;;8321056;28;20025;-60
2023/06/08 02:09:27;;;;;;;5.45;4.80;;;;;;;;;;8319309;28;20068;-60
2023/06/08 02:13:27;;;;;;;4.53;4.13;;;;;;;;;;8318942;28;20036;-60
2023/06/08 02:17:33;;;;;;;4.38;3.97;;;;;;;;;;8317665;28;20041;-60
2023/06/08 02:21:33;;;;;;;5.03;4.53;;;;;;;;;;8319722;28;20021;-60
2023/06/08 02:25:33;;;;;;;4.80;4.20;;;;;;;;;;8317929;28;20759;-60
2023/06/08 02:29:35;;;;;;;4.87;4.23;;;;;;;;;;8320790;28;20025;-60
2023/06/08 02:33:35;;;;;;;5.03;4.47;;;;;;;;;;8314309;28;20383;-60
2023/06/08 02:37:35;;;;;;;7.85;4.78;;;;;;;;;;8320584;28;20178;-60
2023/06/08 02:41:35;;;;;;;5.57;4.60;;;;;;;;;;8318705;28;20019;-61
2023/06/08 02:45:36;;;;;;;5.22;4.72;;;;;;;;;;8319299;28;20055;-60
2023/06/08 02:49:36;;;;;;;6.33;4.80;;;;;;;;;;8319027;28;20147;-60
2023/06/08 02:53:37;;;;;;;5.10;4.60;;;;;;;;;;8316516;28;20028;-61
2023/06/08 02:57:38;;;;;;;5.38;4.40;;;;;;;;;;8318973;28;20025;-60
2023/06/08 03:01:51;;;;;;;6.55;4.63;;;;;;;;;;8315098;28;21026;-60
2023/06/08 03:05:58;;;;;;;6.68;4.13;;;;;;;;;;8317198;28;20111;-60
2023/06/08 03:09:59;;;;;;;7.82;4.80;;;;;;;;;;8317312;28;20800;-60
2023/06/08 03:14:00;;;;;;;4.65;4.25;;;;;;;;;;8319317;28;20105;-60
2023/06/08 03:18:01;;;;;;;4.53;4.13;;;;;;;;;;8317347;28;20048;-60
2023/06/08 03:22:02;;;;;;;5.53;4.60;;;;;;;;;;8316175;28;20032;-61
2023/06/08 03:26:03;;;;;;;6.32;4.65;;;;;;;;;;8318706;28;20029;-60
2023/06/08 03:30:03;;;;;;;4.75;4.03;;;;;;;;;;8316736;28;20025;-61
2023/06/08 03:34:04;;;;;;;5.43;4.53;;;;;;;;;;8316024;28;20147;-60
2023/06/08 03:38:04;;;;;;;5.00;4.60;;;;;;;;;;8318030;28;20290;-60
2023/06/08 03:42:05;;;;;;;4.70;4.13;;;;;;;;;;8314008;28;20118;-60
2023/06/08 03:46:05;;;;;;;6.68;4.32;;;;;;;;;;8316011;28;20033;-60
2023/06/08 03:50:06;;;;;;;4.65;4.20;;;;;;;;;;8316568;28;20037;-60
2023/06/08 03:54:06;;;;;;;4.50;4.10;;;;;;;;;;8315853;28;20051;-60
2023/06/08 03:58:06;;;;;;;9.85;4.85;;;;;;;;;;8317075;28;20420;-60
2023/06/08 04:02:07;;;;;;;6.75;4.40;;;;;;;;;;8315933;28;20040;-61
2023/06/08 04:06:08;;;;;;;4.40;3.88;;;;;;;;;;8312388;28;20028;-60
2023/06/08 04:10:09;;;;;;;5.45;4.55;;;;;;;;;;8312402;28;20032;-60
2023/06/08 04:14:09;;;;;;;4.35;3.95;;;;;;;;;;8314267;28;20040;-60
2023/06/08 04:18:11;;;;;;;4.13;3.73;;;;;;;;;;8312179;28;20113;-60
2023/06/08 04:22:12;;;;;;;5.93;4.18;;;;;;;;;;8314032;28;20453;-60
2023/06/08 04:26:13;;;;;;;5.72;4.15;;;;;;;;;;8316039;28;20021;-60
2023/06/08 04:30:13;;;;;;;4.20;3.80;;;;;;;;;;8315329;28;20029;-60
2023/06/08 04:34:13;;;;;;;5.07;4.17;;;;;;;;;;8315340;28;20440;-60
2023/06/08 04:38:16;;;;;;;5.10;3.97;;;;;;;;;;8316543;28;20290;-60
2023/06/08 04:42:17;;;;;;;4.40;4.00;;;;;;;;;;8316603;28;20024;-60
2023/06/08 04:46:17;;;;;;;4.65;3.65;;;;;;;;;;8314902;28;20709;-61
2023/06/08 04:50:18;;;;;;;6.70;3.67;;;;;;;;;;8314614;28;20033;-60
2023/06/08 04:54:21;;;;;;;5.57;3.53;;;;;;;;;;8316332;28;20029;-60
2023/06/08 04:58:21;;;;;;;4.43;4.00;;;;;;;;;;8318537;28;20128;-60
2023/06/08 05:02:21;;;;;;;8.30;4.45;;;;;;;;;;8312411;28;20045;-60
2023/06/08 05:06:21;;;;;;;3.97;3.60;;;;;;;;;;8315405;28;20021;-60
2023/06/08 05:10:21;;;;;;;5.63;3.75;;;;;;;;;;8316238;28;20037;-61
2023/06/08 05:14:21;;;;;;;4.80;4.30;;;;;;;;;;8314956;28;20068;-60
2023/06/08 05:18:22;;;;;;;5.43;3.95;;;;;;;;;;8314241;28;20469;-61
2023/06/08 05:22:22;;;;;;;6.32;4.10;;;;;;;;;;8314484;28;20832;-61
2023/06/08 05:26:22;;;;;;;4.93;3.65;;;;;;;;;;8315401;28;20361;-61
2023/06/08 05:30:22;;;;;;;5.60;3.60;;;;;;;;;;8314733;28;20040;-61
2023/06/08 05:34:23;;;;;;;4.63;4.23;;;;;;;;;;8317549;28;20085;-61
2023/06/08 05:38:23;;;;;;;5.18;3.83;;;;;;;;;;8321017;28;20021;-61
2023/06/08 05:42:23;;;;;;;6.85;4.07;;;;;;;;;;8319079;28;20024;-61
2023/06/08 05:46:24;;;;;;;4.30;3.60;;;;;;;;;;8316719;28;20527;-61
2023/06/08 05:50:24;;;;;;;4.13;3.70;;;;;;;;;;8322185;28;20282;-61
2023/06/08 05:54:25;;;;;;;8.03;3.90;;;;;;;;;;8320259;28;20032;-61
2023/06/08 05:58:25;;;;;;;7.40;3.78;;;;;;;;;;8319376;28;20043;-61
2023/06/08 06:02:25;;;;;;;7.25;3.58;;;;;;;;;;8317793;28;20057;-61
2023/06/08 06:06:25;;;;;;;6.80;3.80;;;;;;;;;;8321313;28;20345;-61
2023/06/08 06:10:25;;;;;;;3.73;3.30;;;;;;;;;;8321102;28;20057;-62
2023/06/08 06:14:27;;;;;;;4.78;3.17;;;;;;;;;;8316747;28;20016;-62
2023/06/08 06:18:27;;;;;;;5.95;3.65;;;;;;;;;;8317406;28;20073;-61
2023/06/08 06:22:27;;;;;;;8.60;3.78;;;;;;;;;;8318227;28;20036;-61
2023/06/08 06:26:27;;;;;;;3.90;3.50;;;;;;;;;;8321689;28;20017;-61
2023/06/08 06:30:27;;;;;;;5.32;3.40;;;;;;;;;;8318676;28;20752;-61
2023/06/08 06:34:28;;;;;;;3.80;3.50;;;;;;;;;;8314955;28;20091;-61
2023/06/08 06:38:28;;;;;;;4.30;3.67;;;;;;;;;;8317990;28;20393;-61
2023/06/08 06:42:28;;;;;;;6.15;3.80;;;;;;;;;;8316373;28;20021;-61
2023/06/08 06:46:28;;;;;;;4.07;3.50;;;;;;;;;;8316532;28;20550;-61
2023/06/08 06:50:29;;;;;;;7.10;3.58;;;;;;;;;;8315467;28;20017;-61
2023/06/08 06:54:29;;;;;;;4.27;3.30;;;;;;;;;;8318052;28;20040;-61
2023/06/08 06:58:29;;;;;;;4.78;3.80;;;;;;;;;;8318237;28;20047;-61
2023/06/08 07:02:29;;;;;;;4.03;3.53;;;;;;;;;;8315913;28;20037;-61
2023/06/08 07:06:31;;;;;;;6.82;3.60;;;;;;;;;;8317422;28;20120;-61
2023/06/08 07:10:31;;;;;;;4.97;3.90;;;;;;;;;;8317606;28;20049;-61
2023/06/08 07:14:31;;;;;;;5.82;3.88;;;;;;;;;;8316723;28;20032;-62
2023/06/08 07:18:31;;;;;;;4.25;3.67;;;;;;;;;;8314225;28;20041;-61
2023/06/08 07:22:31;;;;;;;4.40;4.00;;;;;;;;;;8314766;28;20804;-62
2023/06/08 07:26:32;;;;;;;5.03;3.60;;;;;;;;;;8316369;28;20106;-61
2023/06/08 07:30:32;;;;;;;4.05;3.75;;;;;;;;;;8311053;28;20272;-62
2023/06/08 07:34:32;;;;;;;3.92;3.63;;;;;;;;;;8319102;28;20132;-61
2023/06/08 07:38:33;;;;;;;3.90;3.60;;;;;;;;;;8316787;28;20029;-62
2023/06/08 07:42:33;;;;;;;5.32;4.35;;;;;;;;;;8317267;28;20027;-61
2023/06/08 07:46:33;;;;;;;4.18;3.72;;;;;;;;;;8305426;28;20768;-62
2023/06/08 07:50:34;;;;;;;4.75;4.10;;;;;;;;;;8311656;28;20831;-61
2023/06/08 07:54:35;;;;;;;4.90;3.63;;;;;;;;;;8310847;28;20221;-61
2023/06/08 07:58:35;;;;;;;5.90;4.60;;;;;;;;;;8310151;28;20298;-62
2023/06/08 08:02:35;;;;;;;4.28;3.83;;;;;;;;;;8296987;28;20069;-61
2023/06/08 08:06:36;;;;;;;4.72;3.88;;;;;;;;;;8316048;28;20052;-61
2023/06/08 08:10:36;;;;;;;5.10;4.05;;;;;;;;;;8314535;28;20082;-61
2023/06/08 08:14:39;;;;;;;4.65;3.80;;;;;;;;;;8314316;28;20864;-61
2023/06/08 08:18:40;;;;;;;3.95;3.63;;;;;;;;;;8301331;28;20044;-61
2023/06/08 08:22:40;;;;;;;4.47;3.83;;;;;;;;;;8310802;28;20111;-61
2023/06/08 08:26:41;;;;;;;3.85;3.55;;;;;;;;;;8311653;28;20025;-61
2023/06/08 08:30:41;;;;;;;4.25;3.90;;;;;;;;;;8311214;28;20148;-61
2023/06/08 08:34:41;;;;;;;4.82;3.83;;;;;;;;;;8314119;28;20029;-62
2023/06/08 08:38:42;;;;;;;4.10;3.70;;;;;;;;;;8307649;28;20626;-61
2023/06/08 08:42:44;;;;;;;4.00;3.40;;;;;;;;;;8312415;28;20043;-61
2023/06/08 08:46:45;;;;;;;4.40;3.97;;;;;;;;;;8310367;28;20709;-61
2023/06/08 08:50:49;;;;;;;4.10;3.70;;;;;;;;;;8314704;28;20029;-61
2023/06/08 08:54:55;;;;;;;4.35;3.53;;;;;;;;;;8313466;28;20102;-62
2023/06/08 08:58:55;;;;;;;5.38;4.15;;;;;;;;;;8311239;28;20197;-62
2023/06/08 09:02:56;;;;;;;4.43;3.80;;;;;;;;;;8310651;28;20033;-61
2023/06/08 09:06:56;;;;;;;4.53;3.67;;;;;;;;;;8312221;28;20048;-62
2023/06/08 09:10:59;;;;;;;4.72;3.72;;;;;;;;;;8314058;28;20032;-62
2023/06/08 09:15:00;;;;;;;4.38;3.97;;;;;;;;;;8313388;28;20029;-62
2023/06/08 09:19:04;;;;;;;6.68;3.75;;;;;;;;;;8310337;28;20052;-61
2023/06/08 09:23:20;;;;;;;4.38;3.70;;;;;;;;;;8309419;28;20053;-61
2023/06/08 09:27:25;;;;;;;3.53;3.30;;;;;;;;;;8312014;28;20905;-61
2023/06/08 09:31:29;;;;;;;4.50;4.10;;;;;;;;;;8311597;28;21081;-61
2023/06/08 09:35:29;;;;;;;5.45;3.33;;;;;;;;;;8312127;28;20060;-61
2023/06/08 09:39:37;;;;;;;5.60;3.80;;;;;;;;;;8313154;28;20021;-61
2023/06/08 09:43:37;;;;;;;5.47;3.58;;;;;;;;;;8309541;28;20538;-61
2023/06/08 09:47:37;;;;;;;3.53;3.22;;;;;;;;;;8310556;28;20049;-61
2023/06/08 09:51:37;;;;;;;4.93;3.80;;;;;;;;;;8315779;28;20610;-62
2023/06/08 09:55:39;;;;;;;3.93;3.43;;;;;;;;;;8307594;28;20025;-61
2023/06/08 09:59:42;;;;;;;4.80;3.47;;;;;;;;;;8305027;28;20067;-61
2023/06/08 10:03:47;;;;;;;3.90;3.58;;;;;;;;;;8307108;28;20060;-61
2023/06/08 10:07:48;;;;;;;3.80;3.28;;;;;;;;;;8312981;28;20143;-61
2023/06/08 10:11:49;;;;;;;4.17;3.27;;;;;;;;;;8308428;28;20028;-61
2023/06/08 10:15:51;;;;;;;3.53;3.23;;;;;;;;;;8310849;28;20059;-61
2023/06/08 10:19:51;;;;;;;3.72;3.20;;;;;;;;;;8309011;28;20029;-61
2023/06/08 10:23:52;;;;;;;5.73;3.57;;;;;;;;;;8316795;28;20029;-62
2023/06/08 10:27:52;;;;;;;5.97;2.90;;;;;;;;;;8323015;28;20041;-62
2023/06/08 10:31:52;;;;;;;2.97;2.73;;;;;;;;;;8323338;28;20036;-61
2023/06/08 10:36:02;;;;;;;3.40;3.10;;;;;;;;;;8327127;28;20548;-63
2023/06/08 10:40:09;;;;;;;3.22;2.92;;;;;;;;;;8322190;28;20036;-62
2023/06/08 10:44:29;;;;;;;7.13;3.45;;;;;;;;;;8324919;28;20029;-60
2023/06/08 10:48:36;;;;;;;4.00;3.20;;;;;;;;;;8324265;28;20048;-60
2023/06/08 10:52:46;;;;;;;4.00;3.70;;;;;;;;;;8336566;28;20570;-61
2023/06/08 10:56:51;;;;;;;4.05;3.60;;;;;;;;;;8327244;28;20028;-60
2023/06/08 11:01:03;;;;;;;3.92;3.50;;;;;;;;;;8325999;28;20045;-62
2023/06/08 11:05:03;;;;;;;;;;;;;;;;;;8325998;28;20028;-60
2023/06/08 11:09:04;;;;;;;6.13;3.47;;;;;;;;;;8328812;28;19917;-59
2023/06/08 11:13:08;;;;;;;5.37;3.23;;;;;;;;;;8321126;28;20048;-60
2023/06/08 11:17:08;;;;;;;6.53;3.70;;;;;;;;;;8324147;28;20055;-59
2023/06/08 11:21:08;;;;;;;7.22;3.38;;;;;;;;;;8326400;28;20052;-62
2023/06/08 11:25:09;;;;;;;6.30;3.20;;;;;;;;;;8323273;28;20908;-59
2023/06/08 11:29:09;;;;;;;4.40;3.00;;;;;;;;;;8324575;28;20806;-60
2023/06/08 11:33:14;;;;;;;5.40;3.23;;;;;;;;;;8325092;28;20115;-62
2023/06/08 11:37:16;;;;;;;6.75;3.10;;;;;;;;;;8328157;28;20029;-59
2023/06/08 11:41:16;;;;;;;4.57;3.03;;;;;;;;;;8325507;28;20021;-59
2023/06/08 11:45:16;;;;;;;4.28;3.20;;;;;;;;;;8324151;28;20078;-60
2023/06/08 11:49:16;;;;;;;3.28;2.97;;;;;;;;;;8327269;28;20032;-60
2023/06/08 11:53:19;;;;;;;4.53;3.15;;;;;;;;;;8323638;28;20511;-60
2023/06/08 11:57:21;;;;;;;3.90;3.08;;;;;;;;;;8323212;28;20033;-59
2023/06/08 12:01:21;;;;;;;3.30;3.10;;;;;;;;;;8324681;28;20445;-60
2023/06/08 12:05:29;;;;;;;3.20;2.90;;;;;;;;;;8326124;28;20032;-62
2023/06/08 12:09:29;;;;;;;3.00;2.80;;;;;;;;;;8321919;28;20016;-60
2023/06/08 12:13:29;;;;;;;2.95;2.75;;;;;;;;;;8322706;28;20542;-61
2023/06/08 12:17:29;;;;;;;3.67;3.10;;;;;;;;;;8320308;28;20038;-60
2023/06/08 12:21:30;;;;;;;4.85;3.17;;;;;;;;;;8320517;28;20021;-59
2023/06/08 12:25:30;;;;;;;4.47;2.90;;;;;;;;;;8322081;28;20063;-60
2023/06/08 12:29:30;;;;;;;2.85;2.63;;;;;;;;;;8326746;28;20779;-59
2023/06/08 12:33:31;;;;;;;3.33;2.78;;;;;;;;;;8318331;28;20044;-60
2023/06/08 12:37:31;;;;;;;3.30;3.00;;;;;;;;;;8322684;28;20151;-61
2023/06/08 12:41:31;;;;;;;5.47;2.75;;;;;;;;;;8325101;28;20059;-60
2023/06/08 12:45:32;;;;;;;2.70;2.50;;;;;;;;;;8325558;28;20029;-61
2023/06/08 12:49:32;;;;;;;3.30;3.00;;;;;;;;;;8325604;28;20036;-60
2023/06/08 12:53:32;;;;;;;5.00;2.90;;;;;;;;;;8323591;28;20536;-61
2023/06/08 12:57:34;;;;;;;3.42;2.80;;;;;;;;;;8323598;28;20123;-62
2023/06/08 13:01:34;;;;;;;3.80;2.70;;;;;;;;;;8319978;28;21023;-60
2023/06/08 13:05:34;;;;;;;3.37;3.07;;;;;;;;;;8321888;28;20703;-59
2023/06/08 13:09:38;;;;;;;4.03;3.10;;;;;;;;;;8325273;28;20029;-60
2023/06/08 13:13:38;;;;;;;4.13;2.90;;;;;;;;;;8323244;28;20050;-59
2023/06/08 13:17:40;;;;;;;3.45;2.90;;;;;;;;;;8323098;28;20047;-60
2023/06/08 13:21:41;;;;;;;4.18;3.10;;;;;;;;;;8323354;28;20016;-59
2023/06/08 13:25:41;;;;;;;4.17;3.10;;;;;;;;;;8320615;28;20429;-60
2023/06/08 13:29:47;;;;;;;4.70;3.40;;;;;;;;;;8325529;28;20029;-59
2023/06/08 13:33:48;;;;;;;3.80;3.42;;;;;;;;;;8319236;28;20045;-61
2023/06/08 13:37:50;;;;;;;5.90;3.40;;;;;;;;;;8319569;28;20036;-59
2023/06/08 13:41:51;;;;;;;3.45;3.00;;;;;;;;;;8320170;28;20255;-60
2023/06/08 13:45:57;;;;;;;6.03;3.65;;;;;;;;;;8318428;28;20041;-60
2023/06/08 13:49:59;;;;;;;5.25;3.42;;;;;;;;;;8314362;28;20040;-61
2023/06/08 13:53:59;;;;;;;;;;;;;;;;;;8323875;28;20151;-60
2023/06/08 13:58:00;;;;;;;5.47;3.30;;;;;;;;;;8326560;28;20030;-60
2023/06/08 14:02:00;;;;;;;4.07;3.20;;;;;;;;;;8324391;28;20033;-59
2023/06/08 14:06:01;;;;;;;3.97;3.25;;;;;;;;;;8326473;28;20124;-60
2023/06/08 14:10:01;;;;;;;3.83;3.10;;;;;;;;;;8326753;28;20112;-60
2023/06/08 14:14:01;;;;;;;5.70;2.92;;;;;;;;;;8326978;28;20516;-59
2023/06/08 14:18:02;;;;;;;3.07;2.73;;;;;;;;;;8327685;28;20947;-61
2023/06/08 14:22:04;;;;;;;4.40;2.92;;;;;;;;;;8327428;28;20032;-62
2023/06/08 14:26:04;;;;;;;3.15;2.80;;;;;;;;;;8323450;28;20118;-60
2023/06/08 14:30:05;;;;;;;5.97;2.78;;;;;;;;;;8332438;28;20041;-59
2023/06/08 14:34:05;;;;;;;3.25;2.60;;;;;;;;;;8323984;28;20041;-58
2023/06/08 14:38:05;;;;;;;2.92;2.55;;;;;;;;;;8323202;28;20902;-58
2023/06/08 14:42:06;;;;;;;3.65;2.80;;;;;;;;;;8330458;28;20017;-61
2023/06/08 14:46:10;;;;;;;3.03;2.72;;;;;;;;;;8324796;28;20033;-58
2023/06/08 14:50:11;;;;;;;4.53;2.67;;;;;;;;;;8338720;28;20484;-59
2023/06/08 14:54:11;;;;;;;2.78;2.58;;;;;;;;;;8327345;28;20740;-62
2023/06/08 14:58:11;;;;;;;3.38;3.08;;;;;;;;;;8330458;28;20021;-63
2023/06/08 15:02:11;;;;;;;3.13;2.83;;;;;;;;;;8332040;28;20095;-63
2023/06/08 15:06:12;;;;;;;3.05;2.75;;;;;;;;;;8340444;28;20025;-60
2023/06/08 15:10:12;;;;;;;3.10;2.80;;;;;;;;;;8327548;28;20058;-58
2023/06/08 15:14:12;;;;;;;3.30;3.00;;;;;;;;;;8321543;28;20063;-58
2023/06/08 15:18:13;;;;;;;3.33;2.93;;;;;;;;;;8318331;28;20520;-58
2023/06/08 15:22:13;;;;;;;3.55;3.05;;;;;;;;;;8322127;28;20279;-58
2023/06/08 15:26:13;;;;;;;3.58;3.08;;;;;;;;;;8322477;28;20136;-58
2023/06/08 15:30:14;;;;;;;5.57;3.17;;;;;;;;;;8316311;28;20773;-58
2023/06/08 15:34:14;;;;;;;3.42;3.13;;;;;;;;;;8314020;28;20127;-58
2023/06/08 15:38:16;;;;;;;4.50;3.55;;;;;;;;;;8316009;28;20032;-59
2023/06/08 15:42:16;;;;;;;3.28;2.97;;;;;;;;;;8319725;28;20624;-58
2023/06/08 15:46:17;;;;;;;3.40;3.10;;;;;;;;;;8321223;28;20029;-58
2023/06/08 15:50:17;;;;;;;3.28;2.97;;;;;;;;;;8317998;28;20151;-58
2023/06/08 15:54:18;;;;;;;3.23;2.93;;;;;;;;;;8317373;28;20025;-58
2023/06/08 15:58:24;;;;;;;3.00;2.80;;;;;;;;;;8319956;28;20032;-58
2023/06/08 16:02:25;;;;;;;3.50;3.20;;;;;;;;;;8314535;28;20111;-57
2023/06/08 16:06:25;;;;;;;3.92;2.90;;;;;;;;;;8313312;28;20072;-57
2023/06/08 16:10:25;;;;;;;3.55;3.05;;;;;;;;;;8310411;28;20024;-57
2023/06/08 16:14:26;;;;;;;4.25;2.97;;;;;;;;;;8311666;28;20028;-57
2023/06/08 16:18:26;;;;;;;6.75;2.97;;;;;;;;;;8310095;28;20064;-57
2023/06/08 16:22:27;;;;;;;3.00;2.70;;;;;;;;;;8305918;28;20359;-58
2023/06/08 16:26:27;;;;;;;3.40;2.90;;;;;;;;;;8310325;28;20021;-58
2023/06/08 16:30:27;;;;;;;4.65;3.08;;;;;;;;;;8318594;28;21123;-58
2023/06/08 16:34:28;;;;;;;4.23;3.23;;;;;;;;;;8308451;28;20021;-60
2023/06/08 16:38:28;;;;;;;4.43;3.00;;;;;;;;;;8310810;28;20029;-59
2023/06/08 16:42:29;;;;;;;4.57;3.00;;;;;;;;;;8316478;28;20024;-58
2023/06/08 16:46:29;;;;;;;6.30;3.25;;;;;;;;;;8319419;28;20025;-57
2023/06/08 16:50:29;;;;;;;10.40;3.77;;;;;;;;;;8315842;28;20021;-58
2023/06/08 16:54:29;;;;;;;6.85;3.60;;;;;;;;;;8314437;28;20029;-57
2023/06/08 16:58:30;;;;;;;7.78;3.67;;;;;;;;;;8315118;28;20072;-58
2023/06/08 17:02:30;;;;;;;7.70;3.47;;;;;;;;;;8312111;28;20047;-57
2023/06/08 17:06:30;;;;;;;5.57;3.72;;;;;;;;;;8309189;28;20534;-57
2023/06/08 17:10:31;;;;;;;6.93;3.75;;;;;;;;;;8312460;28;20086;-58
2023/06/08 17:14:31;;;;;;;4.05;3.53;;;;;;;;;;8309377;28;20830;-57
2023/06/08 17:18:31;;;;;;;5.67;3.30;;;;;;;;;;8311551;28;20040;-57
2023/06/08 17:22:31;;;;;;;8.15;3.50;;;;;;;;;;8308458;28;20143;-57
2023/06/08 17:26:32;;;;;;;4.67;3.70;;;;;;;;;;8301196;28;20012;-59
2023/06/08 17:30:33;;;;;;;5.38;3.97;;;;;;;;;;8295215;28;20531;-59
2023/06/08 17:34:33;;;;;;;4.63;3.50;;;;;;;;;;8309586;28;20067;-57
2023/06/08 17:38:33;;;;;;;4.97;3.40;;;;;;;;;;8311506;28;20029;-58
2023/06/08 17:42:33;;;;;;;4.40;3.03;;;;;;;;;;8309226;28;20037;-57
2023/06/08 17:46:34;;;;;;;8.05;3.30;;;;;;;;;;8309842;28;20748;-57
2023/06/08 17:50:34;;;;;;;4.55;3.47;;;;;;;;;;8307707;28;21008;-57
2023/06/08 17:54:35;;;;;;;5.03;3.38;;;;;;;;;;8309167;28;20409;-57
2023/06/08 17:58:35;;;;;;;4.53;3.08;;;;;;;;;;8312862;28;20813;-57
2023/06/08 18:02:35;;;;;;;3.73;3.00;;;;;;;;;;8313563;28;20029;-57
2023/06/08 18:06:36;;;;;;;5.50;3.43;;;;;;;;;;8310844;28;20029;-57
2023/06/08 18:10:36;;;;;;;7.05;3.80;;;;;;;;;;8313289;28;20082;-57
2023/06/08 18:14:37;;;;;;;4.20;3.63;;;;;;;;;;8312459;28;20519;-57
2023/06/08 18:18:37;;;;;;;4.38;3.13;;;;;;;;;;8309683;28;20033;-57
2023/06/08 18:22:39;;;;;;;5.28;3.05;;;;;;;;;;8309575;28;20017;-57
2023/06/08 18:26:39;;;;;;;4.70;3.20;;;;;;;;;;8309330;28;20041;-57
2023/06/08 18:30:40;;;;;;;4.13;3.20;;;;;;;;;;8307139;28;20029;-57
2023/06/08 18:34:40;;;;;;;3.60;3.07;;;;;;;;;;8308906;28;20056;-57
2023/06/08 18:38:40;;;;;;;3.95;3.33;;;;;;;;;;8311094;28;20071;-57
2023/06/08 18:42:40;;;;;;;4.93;3.33;;;;;;;;;;8314199;28;20194;-57
2023/06/08 18:46:43;;;;;;;4.78;3.50;;;;;;;;;;8317267;28;20263;-57
2023/06/08 18:50:43;;;;;;;4.53;3.45;;;;;;;;;;8316128;28;20207;-57
2023/06/08 18:54:45;;;;;;;4.80;4.15;;;;;;;;;;8314330;28;20817;-57
2023/06/08 18:58:45;;;;;;;4.40;4.00;;;;;;;;;;8317994;28;20036;-57
2023/06/08 19:02:45;;;;;;;3.80;3.33;;;;;;;;;;8313931;28;20037;-57
2023/06/08 19:06:46;;;;;;;4.07;3.30;;;;;;;;;;8315893;28;20055;-57
2023/06/08 19:10:46;;;;;;;4.55;3.65;;;;;;;;;;8316086;28;20082;-57
2023/06/08 19:14:46;;;;;;;3.83;3.40;;;;;;;;;;8311430;28;20021;-57
2023/06/08 19:18:47;;;;;;;4.05;3.45;;;;;;;;;;8312415;28;20136;-57
2023/06/08 19:22:47;;;;;;;5.10;3.05;;;;;;;;;;8315930;28;20058;-57
2023/06/08 19:26:47;;;;;;;5.57;3.23;;;;;;;;;;8314487;28;20033;-57
2023/06/08 19:30:47;;;;;;;4.07;3.53;;;;;;;;;;8311366;28;20448;-57
2023/06/08 19:34:48;;;;;;;5.20;3.22;;;;;;;;;;8312969;28;20546;-57
2023/06/08 19:38:50;;;;;;;3.80;3.47;;;;;;;;;;8314625;28;20911;-57
2023/06/08 19:42:50;;;;;;;3.35;2.97;;;;;;;;;;8312973;28;20206;-57
2023/06/08 19:46:50;;;;;;;5.07;3.35;;;;;;;;;;8313686;28;20150;-57
2023/06/08 19:50:50;;;;;;;5.80;3.88;;;;;;;;;;8314805;28;20882;-57
2023/06/08 19:54:51;;;;;;;6.25;3.95;;;;;;;;;;8315628;28;20090;-57
2023/06/08 19:58:51;;;;;;;8.25;5.50;;;;;;;;;;8316847;28;20088;-57
2023/06/08 20:02:51;;;;;;;5.97;4.40;;;;;;;;;;8314021;28;20064;-57
2023/06/08 20:06:55;;;;;;;8.65;4.45;;;;;;;;;;8315131;28;20686;-57
2023/06/08 20:10:55;;;;;;;5.38;4.07;;;;;;;;;;8311548;28;20031;-57
2023/06/08 20:14:56;;;;;;;4.68;3.60;;;;;;;;;;8311545;28;20378;-56
2023/06/08 20:18:56;;;;;;;5.43;3.63;;;;;;;;;;8316331;28;20041;-57
2023/06/08 20:22:56;;;;;;;4.78;3.55;;;;;;;;;;8311841;28;20029;-57
2023/06/08 20:26:56;;;;;;;3.90;3.40;;;;;;;;;;8312164;28;20021;-57
2023/06/08 20:30:58;;;;;;;3.95;3.55;;;;;;;;;;8314027;28;20036;-57
2023/06/08 20:34:59;;;;;;;5.28;3.40;;;;;;;;;;8312216;28;20308;-57
2023/06/08 20:38:59;;;;;;;4.53;3.45;;;;;;;;;;8309044;28;20024;-57
2023/06/08 20:42:59;;;;;;;3.60;3.30;;;;;;;;;;8310869;28;20017;-57
2023/06/08 20:47:01;;;;;;;3.80;3.50;;;;;;;;;;8311649;28;20029;-57
2023/06/08 20:51:01;;;;;;;3.75;3.45;;;;;;;;;;8309648;28;20043;-57
2023/06/08 20:55:01;;;;;;;5.07;3.55;;;;;;;;;;8304765;28;20725;-57
2023/06/08 20:59:03;;;;;;;7.47;3.53;;;;;;;;;;8311153;28;20580;-58
2023/06/08 21:03:03;;;;;;;3.63;3.33;;;;;;;;;;8311004;28;20504;-57
2023/06/08 21:07:04;;;;;;;5.18;3.70;;;;;;;;;;8304394;28;20017;-57
2023/06/08 21:11:04;;;;;;;4.93;3.65;;;;;;;;;;8307514;28;20026;-57
2023/06/08 21:15:05;;;;;;;3.90;3.60;;;;;;;;;;8295873;28;20032;-57
2023/06/08 21:19:06;;;;;;;4.15;3.75;;;;;;;;;;8303013;28;20284;-57
2023/06/08 21:23:06;;;;;;;4.85;3.60;;;;;;;;;;8310866;28;20119;-57
2023/06/08 21:27:06;;;;;;;6.03;3.60;;;;;;;;;;8310168;28;20135;-57
2023/06/08 21:31:06;;;;;;;3.65;3.35;;;;;;;;;;8315487;28;20037;-57
2023/06/08 21:35:08;;;;;;;5.10;3.55;;;;;;;;;;8307882;28;20033;-57
2023/06/08 21:39:09;;;;;;;4.13;3.60;;;;;;;;;;8305967;28;20066;-57
2023/06/08 21:43:09;;;;;;;4.45;3.40;;;;;;;;;;8307816;28;20053;-57
2023/06/08 21:47:09;;;;;;;3.60;3.30;;;;;;;;;;8302655;28;20029;-57
2023/06/08 21:51:09;;;;;;;6.20;3.78;;;;;;;;;;8304305;28;20135;-57
2023/06/08 21:55:10;;;;;;;5.68;3.47;;;;;;;;;;8305406;28;20029;-56
2023/06/08 21:59:10;;;;;;;4.15;3.75;;;;;;;;;;8306043;28;20033;-57
2023/06/08 22:03:10;;;;;;;6.82;3.67;;;;;;;;;;8306241;28;20037;-57
2023/06/08 22:07:10;;;;;;;6.18;3.28;;;;;;;;;;8304415;28;20025;-57
2023/06/08 22:11:10;;;;;;;3.90;3.50;;;;;;;;;;8306626;28;20036;-57
2023/06/08 22:15:11;;;;;;;4.87;3.27;;;;;;;;;;8311847;28;20107;-57
2023/06/08 22:19:13;;;;;;;3.80;3.40;;;;;;;;;;8314322;28;20028;-57
2023/06/08 22:23:13;;;;;;;3.70;3.30;;;;;;;;;;8317613;28;20275;-57
2023/06/08 22:27:13;;;;;;;3.57;3.27;;;;;;;;;;8321479;28;20393;-57
2023/06/08 22:31:13;;;;;;;5.10;3.30;;;;;;;;;;8319859;28;20264;-57
2023/06/08 22:35:14;;;;;;;3.85;3.42;;;;;;;;;;8320399;28;20041;-57
2023/06/08 22:39:14;;;;;;;4.32;3.38;;;;;;;;;;8318294;28;20044;-57
2023/06/08 22:43:14;;;;;;;3.80;3.20;;;;;;;;;;8316509;28;20021;-57
2023/06/08 22:47:15;;;;;;;4.15;3.70;;;;;;;;;;8316997;28;20653;-57
2023/06/08 22:51:15;;;;;;;6.55;3.40;;;;;;;;;;8318080;28;20082;-57
2023/06/08 22:55:15;;;;;;;5.45;3.55;;;;;;;;;;8312255;28;20048;-57
2023/06/08 22:59:16;;;;;;;4.55;3.60;;;;;;;;;;8313457;28;20029;-57
2023/06/08 23:03:16;;;;;;;4.50;3.80;;;;;;;;;;8316678;28;20098;-58
2023/06/08 23:07:16;;;;;;;3.97;3.55;;;;;;;;;;8317726;28;20762;-57
2023/06/08 23:11:17;;;;;;;6.07;3.90;;;;;;;;;;8318077;28;20086;-57
2023/06/08 23:15:18;;;;;;;4.78;3.40;;;;;;;;;;8313451;28;20358;-57
2023/06/08 23:19:18;;;;;;;3.93;3.53;;;;;;;;;;8314151;28;20072;-57
2023/06/08 23:23:18;;;;;;;5.45;3.60;;;;;;;;;;8315369;28;20032;-57
2023/06/08 23:27:22;;;;;;;4.13;3.72;;;;;;;;;;8316166;28;20025;-56
2023/06/08 23:31:22;;;;;;;3.90;3.50;;;;;;;;;;8312482;28;20044;-57
2023/06/08 23:35:22;;;;;;;3.67;3.30;;;;;;;;;;8314956;28;21070;-57
2023/06/08 23:39:23;;;;;;;7.10;4.00;;;;;;;;;;8319058;28;20287;-57
2023/06/08 23:43:23;;;;;;;4.72;3.70;;;;;;;;;;8318138;28;20154;-57
2023/06/08 23:47:25;;;;;;;4.63;3.97;;;;;;;;;;8313543;28;20037;-57
2023/06/08 23:51:26;;;;;;;3.63;3.33;;;;;;;;;;8317770;28;20021;-57
2023/06/08 23:55:26;;;;;;;5.05;3.42;;;;;;;;;;8317690;28;20021;-56
2023/06/08 23:59:26;;;;;;;5.27;3.67;;;;;;;;;;8323171;28;20032;-56
